LTAT/MLX METAR and TAF weather

Enter ICAO airport designator
Station Type Date Time Source
LTAT METAR 2019/10/23 12:50 UTC NOAA

LTAT 231250Z VRB02KT 9999 FEW040 20/09 Q1020 NOSIG


Station Type Date Time Source
LTAT Decoded METAR 2019/10/23 12:50 UTC NOAA

Malatya / Erhac, Turkey (LTAT) 38-26N 038-05E 849M
Oct 23, 2019 - 08:50 AM EDT / 2019.10.23 1250 UTC
Wind: Variable at 2 MPH (2 KT):0
Visibility: greater than 7 mile(s):0
Sky conditions: mostly clear
Temperature: 68 F (20 C)
Dew Point: 48 F (9 C)
Relative Humidity: 49%
Pressure (altimeter): 30.12 in. Hg (1020 hPa)
ob: LTAT 231250Z VRB02KT 9999 FEW040 20/09 Q1020 NOSIG
cycle: 13

Station Type Date Time Source
LTAT TAF 2019/10/23 12:03 UTC NOAA

TAF LTAT 231040Z 2312/2412 VRB02KT 9999 FEW040
BECMG 2314/2316 CAVOK PROB30 2402/2406 2000 BR

Example: see airport list